Time;durP1;ratioP1;P1;durP2;ratioP2;P2;SDS_P1;SDS_P2;PMS_P1;PMS_P2;Temp;Humidity;BMP_temperature;BMP_pressure;BME280_temperature;BME280_humidity;BME280_pressure;Samples;Min_cycle;Max_cycle;Signal;HPM_P1;HPM_P2
2021/12/25 00:00:16;;;;;;;5.65;4.40;;;;;;;11.26;49.90;100219.81;5051673;28;20237;-73
2021/12/25 00:02:43;;;;;;;5.90;4.20;;;;;;;11.25;49.96;100210.34;5051695;28;20733;-73
2021/12/25 00:05:10;;;;;;;8.55;4.78;;;;;;;11.13;50.22;100206.78;5051601;28;20209;-73
2021/12/25 00:07:35;;;;;;;6.45;3.95;;;;;;;11.20;50.15;100205.63;5051586;28;20187;-73
2021/12/25 00:10:01;;;;;;;7.05;3.97;;;;;;;10.80;50.31;100125.47;5051530;28;20223;-74
2021/12/25 00:12:27;;;;;;;5.53;3.45;;;;;;;11.07;49.88;100181.53;5051793;28;20635;-72
2021/12/25 00:14:54;;;;;;;6.30;3.80;;;;;;;11.18;50.57;100192.66;5051628;28;20171;-74
2021/12/25 00:17:19;;;;;;;4.55;3.20;;;;;;;11.12;50.57;100191.25;5051684;28;20233;-73
2021/12/25 00:19:45;;;;;;;4.53;3.10;;;;;;;11.19;50.32;100207.28;5051512;28;20206;-73
2021/12/25 00:22:10;;;;;;;5.13;3.22;;;;;;;11.20;50.56;100206.50;5051615;28;20639;-74
2021/12/25 00:24:42;;;;;;;7.00;3.95;;;;;;;11.25;50.50;100220.59;5051343;28;20591;-74
2021/12/25 00:30:11;;;;;;;7.00;4.28;;;;;;;11.35;50.21;100218.78;5051363;28;20341;-74
2021/12/25 00:35:08;;;;;;;4.60;3.20;;;;;;;11.36;50.33;100221.47;5051196;28;20162;-73
2021/12/25 00:37:33;;;;;;;4.60;3.53;;;;;;;11.42;50.46;100219.38;5050973;28;20199;-74
2021/12/25 00:39:59;;;;;;;4.07;3.42;;;;;;;11.29;50.50;100201.22;5051390;28;20241;-74
2021/12/25 00:42:24;;;;;;;5.55;3.13;;;;;;;11.35;50.73;100221.34;5051328;28;20171;-73
2021/12/25 00:44:50;;;;;;;6.05;3.75;;;;;;;11.30;50.39;100206.47;5051328;28;20576;-73
2021/12/25 00:47:15;;;;;;;6.68;3.47;;;;;;;11.39;50.56;100214.00;5051255;28;20529;-73
2021/12/25 00:49:41;;;;;;;5.18;3.55;;;;;;;11.35;50.51;100211.97;5051240;28;20662;-74
2021/12/25 00:52:06;;;;;;;4.30;2.95;;;;;;;11.34;50.68;100182.00;5051274;28;20252;-73
2021/12/25 00:54:32;;;;;;;4.95;3.65;;;;;;;11.34;50.45;100179.44;5051198;28;20624;-73
2021/12/25 00:56:58;;;;;;;5.10;2.95;;;;;;;11.37;50.36;100191.56;5050992;28;20532;-72
2021/12/25 00:59:23;;;;;;;5.22;3.33;;;;;;;11.26;50.68;100177.91;5050920;28;20226;-74
2021/12/25 01:01:49;;;;;;;4.45;3.13;;;;;;;11.38;51.03;100203.66;5051257;28;20198;-74
2021/12/25 01:04:14;;;;;;;6.20;3.10;;;;;;;11.40;51.13;100208.13;5051236;28;20616;-74
2021/12/25 01:06:40;;;;;;;6.07;3.35;;;;;;;11.41;50.93;100206.47;5050816;28;20258;-74
2021/12/25 01:09:06;;;;;;;5.13;2.95;;;;;;;11.45;50.64;100191.41;5050975;28;20172;-75
2021/12/25 01:11:33;;;;;;;4.75;3.03;;;;;;;11.21;51.03;100162.13;5050931;28;20225;-73
2021/12/25 01:14:06;;;;;;;3.92;3.35;;;;;;;11.53;50.39;100200.63;5051057;28;20254;-73
2021/12/25 01:24:29;;;;;;;5.53;3.50;;;;;;;11.54;51.04;100210.09;5055204;28;20173;-74
2021/12/25 01:48:25;;;;;;;4.10;3.22;;;;;;;11.58;50.91;100193.28;5054511;28;20247;-74
2021/12/25 01:50:52;;;;;;;5.05;3.30;;;;;;;11.55;51.18;100201.63;5054247;28;20198;-74
2021/12/25 01:53:18;;;;;;;5.25;2.92;;;;;;;11.56;51.18;100200.88;5054382;28;20290;-74
2021/12/25 01:55:44;;;;;;;5.28;3.35;;;;;;;11.58;50.97;100190.72;5054557;28;20221;-74
2021/12/25 01:58:10;;;;;;;4.28;3.15;;;;;;;11.49;51.13;100190.88;5054527;28;20210;-74
2021/12/25 02:00:39;;;;;;;4.35;3.20;;;;;;;11.66;50.78;100193.91;5054522;28;20179;-73
2021/12/25 02:03:07;;;;;;;4.82;3.15;;;;;;;11.66;51.23;100199.03;5054201;28;20545;-73
2021/12/25 02:05:32;;;;;;;6.80;3.95;;;;;;;11.55;51.17;100193.03;5054378;28;20186;-73
2021/12/25 02:07:58;;;;;;;4.50;2.88;;;;;;;11.64;51.09;100198.91;5054055;28;20172;-74
2021/12/25 02:10:23;;;;;;;5.90;3.35;;;;;;;11.61;50.87;100196.09;5053396;28;20238;-73
2021/12/25 02:12:49;;;;;;;6.22;3.50;;;;;;;11.44;51.90;100192.19;5052686;28;20651;-72
2021/12/25 02:15:20;;;;;;;5.78;3.00;;;;;;;11.60;50.95;100194.31;5053009;28;20670;-72
2021/12/25 02:21:19;;;;;;;5.30;3.20;;;;;;;11.54;51.74;100189.59;5052132;28;20572;-73
2021/12/25 02:23:34;;;;;;;6.10;3.30;;;;;;;11.62;51.13;100182.50;5051328;28;20194;-73
2021/12/25 02:26:00;;;;;;;4.85;3.05;;;;;;;11.53;51.25;100177.53;5052485;28;20180;-72
2021/12/25 02:28:26;;;;;;;4.93;2.80;;;;;;;11.51;51.35;100178.19;5052405;28;20232;-73
2021/12/25 02:30:55;;;;;;;5.68;3.45;;;;;;;11.44;52.10;100191.31;5052423;28;20211;-73
2021/12/25 02:33:21;;;;;;;4.22;3.15;;;;;;;11.47;52.02;100181.28;5052588;28;20180;-73
2021/12/25 02:35:47;;;;;;;4.85;3.08;;;;;;;11.61;51.40;100178.13;5052595;28;20180;-74
2021/12/25 02:38:13;;;;;;;3.92;2.75;;;;;;;11.60;51.21;100178.03;5052001;28;20213;-73
2021/12/25 02:40:39;;;;;;;3.97;3.25;;;;;;;11.60;51.32;100168.66;5052515;28;20270;-73
2021/12/25 02:43:04;;;;;;;6.95;3.58;;;;;;;11.63;51.14;100170.56;5052236;28;20179;-72
2021/12/25 02:45:30;;;;;;;4.35;2.85;;;;;;;11.65;51.15;100169.00;5052417;28;20179;-74
2021/12/25 02:47:57;;;;;;;5.40;3.28;;;;;;;11.70;50.85;100168.59;5052178;28;20175;-74
2021/12/25 02:50:29;;;;;;;4.43;3.05;;;;;;;11.52;50.82;100144.94;5052037;28;20175;-72
2021/12/25 02:52:57;;;;;;;4.15;3.10;;;;;;;11.51;51.17;100148.28;5052077;28;20171;-73
2021/12/25 02:55:23;;;;;;;4.78;3.25;;;;;;;11.60;51.30;100160.06;5052035;28;20612;-73
2021/12/25 02:57:52;;;;;;;3.78;2.65;;;;;;;11.67;51.13;100172.59;5052129;28;20229;-72
2021/12/25 03:00:27;;;;;;;4.75;2.90;;;;;;;11.63;51.34;100150.03;5052153;28;20232;-73
2021/12/25 03:02:53;;;;;;;4.57;2.97;;;;;;;11.59;51.15;100146.34;5051896;28;20167;-73
2021/12/25 03:05:18;;;;;;;4.35;2.90;;;;;;;11.71;51.14;100177.19;5052225;28;20186;-74
2021/12/25 03:07:45;;;;;;;4.35;3.25;;;;;;;11.73;51.08;100178.19;5052139;28;20175;-73
2021/12/25 03:10:13;;;;;;;3.38;2.42;;;;;;;11.74;51.20;100169.72;5011042;28;1181411;-73
2021/12/25 03:13:06;;;;;;;6.30;3.17;;;;;;;11.62;51.45;100153.34;5053122;28;20256;-73
2021/12/25 03:15:45;;;;;;;3.83;2.38;;;;;;;11.62;51.12;100161.97;5053084;28;20224;-73
2021/12/25 03:18:23;;;;;;;3.15;2.33;;;;;;;11.69;51.24;100160.78;5053027;28;20199;-74
2021/12/25 03:20:51;;;;;;;5.72;3.45;;;;;;;11.79;51.00;100178.69;5052984;28;20179;-73
2021/12/25 03:23:20;;;;;;;5.65;3.78;;;;;;;11.63;50.88;100153.50;5052969;28;20180;-73
2021/12/25 03:25:47;;;;;;;3.85;2.85;;;;;;;11.81;51.01;100184.84;5052782;28;20170;-73
2021/12/25 03:28:15;;;;;;;4.18;3.20;;;;;;;11.84;50.96;100186.72;5052947;28;20167;-73
2021/12/25 03:30:41;;;;;;;3.42;2.55;;;;;;;11.71;51.43;100192.56;5052569;28;20179;-73
2021/12/25 03:33:10;;;;;;;4.13;2.97;;;;;;;11.68;51.70;100188.13;5052458;28;20163;-73
2021/12/25 03:35:36;;;;;;;3.38;2.75;;;;;;;11.72;51.51;100197.84;5052605;28;20560;-73
2021/12/25 03:38:08;;;;;;;6.80;3.38;;;;;;;11.62;51.81;100190.22;5052054;28;20674;-73
2021/12/25 03:40:34;;;;;;;4.28;2.95;;;;;;;11.65;51.81;100198.16;5052073;28;20167;-74
2021/12/25 03:43:00;;;;;;;5.88;3.33;;;;;;;11.68;51.40;100189.78;5052323;28;20663;-74
2021/12/25 03:45:29;;;;;;;4.50;2.80;;;;;;;11.54;51.91;100174.19;5052634;28;20244;-73
2021/12/25 03:48:06;;;;;;;5.70;3.22;;;;;;;11.57;51.97;100187.25;5052744;28;20186;-75
2021/12/25 03:58:44;;;;;;;6.00;2.90;;;;;;;11.63;52.07;100199.69;5052061;28;20206;-72
2021/12/25 04:01:44;;;;;;;4.65;3.00;;;;;;;11.57;51.95;100199.19;5051872;28;20187;-72
2021/12/25 04:04:34;;;;;;;3.45;2.70;;;;;;;11.56;51.96;100203.44;5051623;28;20229;-74
2021/12/25 04:06:57;;;;;;;3.72;2.45;;;;;;;11.61;51.88;100195.19;5050613;28;20230;-73
2021/12/25 04:09:25;;;;;;;2.95;2.47;;;;;;;11.65;51.81;100217.75;5051833;28;20647;-73
2021/12/25 04:11:53;;;;;;;5.13;2.70;;;;;;;11.72;51.44;100215.81;5050462;28;20262;-74
2021/12/25 04:14:19;;;;;;;3.60;2.65;;;;;;;11.68;51.61;100211.22;5051972;28;20175;-72
2021/12/25 04:16:44;;;;;;;4.05;3.08;;;;;;;11.72;51.61;100213.25;5051661;28;20630;-73
2021/12/25 04:19:10;;;;;;;5.05;3.33;;;;;;;11.72;51.88;100213.25;5051756;28;20210;-73
2021/12/25 04:21:40;;;;;;;6.68;3.65;;;;;;;11.57;51.73;100210.34;5051514;28;20650;-73
2021/12/25 04:24:06;;;;;;;6.72;3.83;;;;;;;11.69;51.61;100230.97;5050621;28;20175;-73
2021/12/25 04:26:31;;;;;;;4.65;3.38;;;;;;;11.73;51.64;100232.09;5051324;28;20237;-73
2021/12/25 05:04:07;;;;;;;4.18;3.13;;;;;;;11.75;51.54;100240.84;5050885;28;20226;-73
2021/12/25 05:06:33;;;;;;;4.68;3.08;;;;;;;11.78;51.14;100235.94;5050880;28;20569;-74
2021/12/25 05:08:59;;;;;;;4.93;3.05;;;;;;;11.92;51.34;100273.00;5050759;28;20176;-73
2021/12/25 05:11:24;;;;;;;4.38;3.17;;;;;;;11.83;51.22;100244.00;5050627;28;20226;-73
2021/12/25 05:13:50;;;;;;;5.30;3.10;;;;;;;11.92;51.49;100280.69;5051158;28;20544;-72
2021/12/25 05:16:20;;;;;;;4.82;3.13;;;;;;;12.00;51.12;100285.66;5051127;28;20221;-73
2021/12/25 05:18:46;;;;;;;5.13;3.10;;;;;;;12.01;51.45;100284.88;5049332;28;20199;-73
2021/12/25 05:21:14;;;;;;;4.45;3.10;;;;;;;11.92;51.35;100284.16;5050714;28;20182;-73
2021/12/25 05:23:40;;;;;;;3.25;2.80;;;;;;;11.56;51.24;100231.66;5050763;28;20187;-74
2021/12/25 05:26:06;;;;;;;4.43;2.88;;;;;;;11.95;51.51;100286.97;5050737;28;20164;-72
2021/12/25 05:28:40;;;;;;;4.95;3.13;;;;;;;11.77;51.33;100270.06;5051303;28;20258;-72
2021/12/25 05:31:07;;;;;;;5.55;3.35;;;;;;;11.93;51.27;100305.59;5051167;28;20164;-74
2021/12/25 05:33:33;;;;;;;7.47;4.10;;;;;;;11.93;51.87;100306.50;5050727;28;20181;-73
2021/12/25 05:35:59;;;;;;;4.70;3.10;;;;;;;12.05;51.49;100315.94;5050711;28;20179;-73
2021/12/25 05:38:25;;;;;;;5.28;3.22;;;;;;;11.86;51.95;100305.88;5050631;28;20309;-73
2021/12/25 05:40:50;;;;;;;4.63;3.28;;;;;;;11.98;51.29;100310.31;5050968;28;20175;-73
2021/12/25 05:43:16;;;;;;;8.43;4.45;;;;;;;11.98;51.32;100306.84;5050843;28;20172;-74
2021/12/25 05:45:42;;;;;;;6.35;3.70;;;;;;;11.91;51.70;100315.75;5049340;28;20175;-73
2021/12/25 05:48:08;;;;;;;8.02;4.25;;;;;;;11.88;51.35;100294.97;5050540;28;20189;-75
2021/12/25 05:50:34;;;;;;;6.03;3.42;;;;;;;12.03;51.38;100326.09;5050379;28;20176;-74
2021/12/25 05:53:00;;;;;;;5.13;2.92;;;;;;;12.01;51.22;100310.56;5050467;28;20175;-73
2021/12/25 05:55:26;;;;;;;4.60;3.60;;;;;;;11.92;51.30;100296.09;5050330;28;20217;-74
2021/12/25 05:57:52;;;;;;;5.80;3.65;;;;;;;11.71;51.44;100288.47;5050537;28;20179;-73
2021/12/25 06:00:20;;;;;;;6.60;3.58;;;;;;;12.02;51.58;100321.72;5050396;28;20232;-73
2021/12/25 06:02:46;;;;;;;6.85;3.08;;;;;;;11.99;51.53;100313.78;5052284;28;20180;-73
2021/12/25 06:05:12;;;;;;;5.43;3.65;;;;;;;12.05;51.34;100305.66;5053810;28;20179;-74
2021/12/25 06:07:38;;;;;;;4.65;3.47;;;;;;;12.08;51.31;100311.03;5054181;28;20258;-73
2021/12/25 06:10:07;;;;;;;7.03;3.80;;;;;;;12.04;51.56;100320.19;5053720;28;20324;-75
2021/12/25 06:12:33;;;;;;;5.63;3.38;;;;;;;11.98;51.55;100307.75;5052920;28;20168;-74
2021/12/25 06:15:01;;;;;;;4.68;3.25;;;;;;;11.84;51.68;100291.97;5051784;28;20167;-73
2021/12/25 06:17:27;;;;;;;5.78;3.72;;;;;;;12.06;51.52;100305.81;5051664;28;20194;-73
2021/12/25 06:19:53;;;;;;;4.97;3.20;;;;;;;11.97;51.32;100307.63;5051721;28;20199;-73
2021/12/25 06:22:19;;;;;;;6.65;4.03;;;;;;;11.97;51.88;100305.97;5052157;28;20660;-74
2021/12/25 06:24:49;;;;;;;5.80;3.13;;;;;;;11.96;51.95;100304.19;5051487;28;20258;-74
2021/12/25 06:27:16;;;;;;;5.32;3.58;;;;;;;12.08;51.72;100313.63;5052216;28;20176;-73
2021/12/25 06:29:42;;;;;;;4.50;3.08;;;;;;;12.16;51.58;100323.72;5052014;28;20338;-73
2021/12/25 06:32:07;;;;;;;6.80;4.28;;;;;;;12.11;51.62;100314.75;5052007;28;20369;-73
2021/12/25 06:34:33;;;;;;;5.53;3.47;;;;;;;12.13;51.34;100315.78;5050787;28;20195;-75
2021/12/25 06:36:58;;;;;;;6.38;4.22;;;;;;;12.15;51.46;100326.16;5052068;28;20191;-73
2021/12/25 06:39:24;;;;;;;6.05;4.15;;;;;;;12.02;51.44;100332.91;5053087;28;20226;-74
2021/12/25 06:41:49;;;;;;;5.80;3.50;;;;;;;12.00;51.50;100313.03;5053543;28;20176;-73
2021/12/25 06:44:15;;;;;;;5.50;3.42;;;;;;;12.12;51.66;100336.19;5053371;28;20171;-74
2021/12/25 06:46:40;;;;;;;5.95;3.85;;;;;;;12.16;51.40;100340.81;5053255;28;20647;-73
2021/12/25 06:49:06;;;;;;;12.90;4.32;;;;;;;12.00;51.70;100305.31;5053413;28;20175;-74
2021/12/25 06:51:34;;;;;;;6.72;4.05;;;;;;;12.14;51.72;100338.09;5053256;28;20715;-74
2021/12/25 06:54:01;;;;;;;6.95;4.55;;;;;;;12.08;51.86;100339.28;5053150;28;20202;-74
2021/12/25 06:56:26;;;;;;;6.85;4.82;;;;;;;12.15;51.94;100339.91;5052915;28;20781;-76
2021/12/25 06:58:52;;;;;;;5.68;4.00;;;;;;;12.19;51.97;100357.34;5052753;28;20301;-74
2021/12/25 07:01:17;;;;;;;10.63;5.47;;;;;;;12.05;51.97;100339.03;5052800;28;20199;-73
2021/12/25 07:03:43;;;;;;;12.95;9.20;;;;;;;12.10;52.13;100351.50;5053067;28;20270;-75
2021/12/25 07:06:10;;;;;;;10.27;7.35;;;;;;;12.21;52.33;100368.66;5051372;28;20725;-74
2021/12/25 07:08:35;;;;;;;10.07;6.13;;;;;;;12.20;52.31;100356.56;5052691;28;20176;-75
2021/12/25 07:11:01;;;;;;;8.80;5.38;;;;;;;12.28;52.14;100353.75;5052581;28;20223;-75
2021/12/25 07:13:29;;;;;;;12.48;7.25;;;;;;;12.22;52.44;100362.75;5051599;28;20273;-75
2021/12/25 07:15:54;;;;;;;12.73;7.70;;;;;;;12.25;52.59;100365.56;5052809;28;20171;-73
2021/12/25 07:18:20;;;;;;;11.98;7.28;;;;;;;12.11;52.40;100329.25;5052868;28;20260;-76
2021/12/25 07:20:48;;;;;;;13.52;6.70;;;;;;;12.22;52.16;100333.59;5052516;28;20544;-75
2021/12/25 07:23:15;;;;;;;10.00;6.28;;;;;;;12.35;52.40;100358.56;5052809;28;20175;-74
2021/12/25 07:25:40;;;;;;;15.10;7.32;;;;;;;11.82;52.41;100261.06;5052725;28;20179;-74
2021/12/25 07:28:06;;;;;;;16.17;7.25;;;;;;;12.38;52.19;100351.09;5052571;28;20248;-75
2021/12/25 07:30:32;;;;;;;14.35;7.45;;;;;;;12.32;52.42;100343.81;5052411;28;20237;-74
2021/12/25 07:32:58;;;;;;;10.40;6.60;;;;;;;12.43;51.85;100350.69;5051021;28;20175;-77
2021/12/25 07:35:24;;;;;;;12.93;6.88;;;;;;;12.41;52.16;100364.19;5052642;28;20167;-76
2021/12/25 07:37:49;;;;;;;19.35;7.82;;;;;;;12.53;51.59;100371.97;5052017;28;20195;-75
2021/12/25 07:40:15;;;;;;;13.60;7.32;;;;;;;12.50;51.60;100359.78;5052448;28;20328;-74
2021/12/25 07:42:41;;;;;;;13.82;7.00;;;;;;;12.27;51.84;100357.94;5034279;28;20174;-78
2021/12/25 07:45:08;;;;;;;21.08;10.63;;;;;;;12.26;51.70;100343.31;5052259;28;20275;-78
2021/12/25 07:47:39;;;;;;;18.75;8.55;;;;;;;12.49;51.71;100383.66;5052338;28;20186;-76
2021/12/25 07:50:05;;;;;;;12.23;6.85;;;;;;;12.53;51.57;100380.56;5051953;28;20270;-77
2021/12/25 07:52:31;;;;;;;12.43;7.65;;;;;;;12.60;54.18;100369.09;5052046;28;20203;-79
2021/12/25 07:54:56;;;;;;;14.23;8.85;;;;;;;12.68;55.78;100379.22;5052345;28;20205;-79
2021/12/25 07:57:22;;;;;;;24.83;8.10;;;;;;;12.84;53.83;100385.53;5051900;28;20728;-78
2021/12/25 07:59:48;;;;;;;13.48;7.88;;;;;;;12.75;52.88;100343.69;5051809;28;20210;-79
2021/12/25 08:02:13;;;;;;;18.55;8.88;;;;;;;13.14;51.37;100384.41;5050647;28;20229;-76
2021/12/25 08:04:39;;;;;;;14.68;7.50;;;;;;;13.21;51.01;100390.91;5051927;28;20178;-78
2021/12/25 08:07:04;;;;;;;13.55;7.07;;;;;;;13.21;50.40;100388.31;5052014;28;20183;-74
2021/12/25 08:09:31;;;;;;;21.70;9.48;;;;;;;12.68;50.46;100299.53;5051741;28;20304;-75
2021/12/25 08:11:58;;;;;;;11.88;7.05;;;;;;;13.23;50.02;100387.66;5051674;28;20175;-76
2021/12/25 08:14:25;;;;;;;12.70;6.55;;;;;;;13.17;50.44;100389.78;5051521;28;20258;-76
2021/12/25 08:16:56;;;;;;;11.85;6.90;;;;;;;13.11;50.80;100400.50;5051392;28;20179;-76
2021/12/25 08:19:22;;;;;;;14.85;7.78;;;;;;;13.07;50.76;100400.16;5051596;28;20195;-75
2021/12/25 08:21:48;;;;;;;10.27;6.68;;;;;;;13.11;50.37;100402.16;5050115;28;20589;-75
2021/12/25 08:24:14;;;;;;;11.40;7.07;;;;;;;12.89;50.68;100369.66;5050913;28;20186;-75
2021/12/25 08:26:40;;;;;;;13.48;7.43;;;;;;;13.20;50.83;100407.13;5051217;28;20179;-73
2021/12/25 08:29:06;;;;;;;19.17;9.00;;;;;;;13.17;50.67;100397.50;5051540;28;20772;-75
2021/12/25 08:31:31;;;;;;;18.98;9.15;;;;;;;13.02;51.17;100386.03;5051270;28;20678;-75
2021/12/25 08:33:57;;;;;;;15.98;8.02;;;;;;;13.21;50.77;100406.34;5051468;28;20199;-74
2021/12/25 08:36:22;;;;;;;22.17;10.65;;;;;;;13.22;51.08;100414.19;5050994;28;20198;-75
2021/12/25 08:38:48;;;;;;;18.25;8.57;;;;;;;13.35;50.59;100401.50;5051289;28;20234;-76
2021/12/25 08:41:13;;;;;;;13.75;7.40;;;;;;;13.32;50.69;100390.97;5051006;28;20205;-73
2021/12/25 08:43:46;;;;;;;18.67;9.18;;;;;;;13.26;50.91;100374.19;5049880;28;20172;-75
2021/12/25 08:46:19;;;;;;;19.48;10.32;;;;;;;13.01;51.16;100350.81;5051136;28;20229;-74
2021/12/25 08:48:46;;;;;;;23.13;11.32;;;;;;;13.19;50.78;100377.94;5051117;28;20164;-75
2021/12/25 08:51:13;;;;;;;18.45;8.85;;;;;;;13.30;50.68;100394.22;5051143;28;20179;-73
2021/12/25 08:53:38;;;;;;;17.67;8.60;;;;;;;13.18;50.63;100369.34;5051127;28;20643;-75
2021/12/25 08:56:04;;;;;;;16.83;8.55;;;;;;;13.25;50.41;100383.59;5051010;28;20175;-75
2021/12/25 08:58:31;;;;;;;22.80;10.95;;;;;;;13.30;50.89;100389.97;5050817;28;20195;-75
2021/12/25 09:01:01;;;;;;;23.55;11.35;;;;;;;13.35;50.32;100380.03;5051156;28;20180;-75
2021/12/25 09:03:28;;;;;;;13.90;7.85;;;;;;;13.47;50.28;100386.09;5050798;28;20182;-74
2021/12/25 09:05:58;;;;;;;15.82;7.55;;;;;;;13.49;50.37;100384.53;5050836;28;20183;-73
2021/12/25 09:08:24;;;;;;;11.18;5.70;;;;;;;13.55;50.57;100381.50;5051064;28;20654;-75
2021/12/25 09:10:51;;;;;;;9.88;5.13;;;;;;;13.75;49.57;100381.31;5050670;28;20319;-75
2021/12/25 09:13:16;;;;;;;10.02;6.10;;;;;;;13.66;49.45;100356.56;5050780;28;20187;-76
2021/12/25 09:15:42;;;;;;;12.63;5.68;;;;;;;13.79;49.33;100352.41;5050744;28;20171;-74
2021/12/25 09:18:08;;;;;;;6.30;4.82;;;;;;;14.09;48.97;100369.22;5050655;28;20172;-74
2021/12/25 09:20:33;;;;;;;10.75;6.03;;;;;;;14.15;48.50;100350.72;5050968;28;20577;-75
2021/12/25 09:22:59;;;;;;;11.27;4.82;;;;;;;14.28;48.42;100352.50;5050596;28;20175;-74
2021/12/25 09:25:26;;;;;;;8.00;4.65;;;;;;;14.04;48.63;100301.00;5050938;28;20190;-74
2021/12/25 09:27:52;;;;;;;7.88;4.20;;;;;;;14.46;47.85;100360.63;5050796;28;20260;-74
2021/12/25 09:30:19;;;;;;;7.68;4.25;;;;;;;14.51;47.90;100359.28;5050540;28;20541;-74
2021/12/25 09:32:44;;;;;;;9.32;4.50;;;;;;;14.55;47.70;100344.16;5050511;28;20183;-75
2021/12/25 09:35:10;;;;;;;8.30;4.13;;;;;;;14.78;47.31;100350.00;5050427;28;20167;-75
2021/12/25 09:37:36;;;;;;;6.78;3.72;;;;;;;14.92;47.55;100346.72;5052537;28;20202;-74
2021/12/25 09:40:04;;;;;;;12.90;3.72;;;;;;;15.22;46.27;100337.53;5054385;28;20229;-76
2021/12/25 09:42:29;;;;;;;7.22;4.30;;;;;;;15.65;45.62;100332.66;5054642;28;20266;-74
2021/12/25 09:44:55;;;;;;;7.60;3.80;;;;;;;15.95;45.56;100330.31;5054344;28;20735;-72
2021/12/25 09:47:21;;;;;;;6.28;4.03;;;;;;;16.24;44.90;100320.91;5052764;28;20175;-73
2021/12/25 09:49:48;;;;;;;5.25;3.30;;;;;;;16.53;43.86;100314.94;5054331;28;20271;-75
2021/12/25 09:52:13;;;;;;;6.00;3.55;;;;;;;16.64;43.59;100303.56;5054609;28;20233;-74
2021/12/25 09:54:39;;;;;;;6.25;3.80;;;;;;;16.91;42.89;100303.47;5054218;28;20175;-75
2021/12/25 09:57:05;;;;;;;7.45;4.18;;;;;;;17.06;43.02;100312.16;5054027;28;20182;-74
2021/12/25 09:59:31;;;;;;;8.60;4.85;;;;;;;17.43;42.48;100314.31;5054042;28;20731;-76
2021/12/25 10:01:57;;;;;;;7.60;4.55;;;;;;;17.67;42.15;100320.91;5053952;28;20167;-74
2021/12/25 10:04:50;;;;;;;5.72;3.22;;;;;;;17.51;41.74;100240.53;5054015;28;20172;-74
2021/12/25 10:07:22;;;;;;;4.75;3.30;;;;;;;18.10;41.36;100318.16;5053005;28;20191;-73
2021/12/25 10:09:57;;;;;;;5.80;3.63;;;;;;;18.18;40.95;100282.25;5054100;28;20702;-74
2021/12/25 10:12:32;;;;;;;7.20;4.75;;;;;;;18.44;40.72;100304.41;5052766;28;20198;-74
2021/12/25 10:14:57;;;;;;;8.50;4.13;;;;;;;18.33;40.98;100303.84;5055196;28;20171;-73
2021/12/25 10:17:30;;;;;;;8.90;3.70;;;;;;;18.23;41.18;100312.84;5054050;28;20177;-75
2021/12/25 10:19:59;;;;;;;9.27;4.10;;;;;;;18.07;41.45;100275.59;5049827;28;20199;-76
2021/12/25 10:22:25;;;;;;;6.15;3.78;;;;;;;18.04;41.53;100268.56;5053886;28;20186;-76
2021/12/25 10:25:07;;;;;;;10.98;4.28;;;;;;;18.36;41.28;100291.03;5051382;28;20183;-77
2021/12/25 10:27:35;;;;;;;6.78;4.60;;;;;;;18.58;41.01;100298.25;5053266;28;20254;-76
2021/12/25 10:30:05;;;;;;;10.82;4.18;;;;;;;18.63;40.73;100291.63;5048363;28;20180;-73
2021/12/25 10:32:36;;;;;;;7.65;4.65;;;;;;;18.70;40.85;100295.44;5050114;28;20171;-73
2021/12/25 10:35:13;;;;;;;5.70;3.78;;;;;;;18.82;40.72;100280.53;5053398;28;20291;-73
2021/12/25 10:37:43;;;;;;;5.57;3.92;;;;;;;18.88;41.19;100286.03;5049845;28;20194;-72
2021/12/25 10:40:31;;;;;;;5.43;4.15;;;;;;;18.92;41.35;100276.69;5048391;28;20196;-72
2021/12/25 10:42:59;;;;;;;6.60;3.00;;;;;;;19.00;41.30;100277.06;5038965;28;20195;-73
2021/12/25 10:45:28;;;;;;;6.15;3.60;;;;;;;19.16;41.35;100277.06;5033316;28;20613;-75
2021/12/25 10:48:08;;;;;;;6.38;4.03;;;;;;;19.37;40.90;100256.44;5045400;28;20188;-75
2021/12/25 10:50:37;;;;;;;3.92;2.75;;;;;;;19.65;40.65;100263.91;5033966;28;20183;-69
2021/12/25 10:53:22;;;;;;;9.43;4.82;;;;;;;19.89;41.15;100273.69;5037063;28;20184;-76
2021/12/25 10:55:49;;;;;;;9.73;4.72;;;;;;;20.22;40.16;100264.88;5035872;28;20711;-77
2021/12/25 10:58:20;;;;;;;5.60;3.15;;;;;;;20.51;39.28;100262.69;5033285;28;20652;-76
2021/12/25 11:00:54;;;;;;;17.23;4.57;;;;;;;20.67;39.27;100264.28;5047420;28;20252;-76
2021/12/25 11:03:28;;;;;;;8.70;3.72;;;;;;;20.88;38.84;100251.31;5051262;28;20176;-76
2021/12/25 11:05:53;;;;;;;4.72;3.40;;;;;;;20.88;38.69;100239.19;5052869;28;20175;-75
2021/12/25 11:08:20;;;;;;;10.38;3.33;;;;;;;21.19;38.49;100269.13;5053036;28;20605;-76
2021/12/25 11:11:00;;;;;;;8.48;3.17;;;;;;;21.33;38.25;100265.34;5039013;28;20624;-76
2021/12/25 11:13:44;;;;;;;10.18;3.55;;;;;;;21.40;38.60;100267.44;5032759;28;20658;-78
2021/12/25 11:16:35;;;;;;;6.72;3.80;;;;;;;21.57;38.60;100272.44;5033990;28;20274;-75
2021/12/25 11:19:28;;;;;;;6.80;3.53;;;;;;;21.62;38.33;100243.13;5032723;28;20208;-76
2021/12/25 11:21:58;;;;;;;12.27;7.13;;;;;;;21.91;38.10;100270.34;5043580;28;20183;-74
2021/12/25 11:24:36;;;;;;;5.70;3.92;;;;;;;22.02;37.70;100265.53;5034013;28;20180;-76
2021/12/25 11:27:04;;;;;;;6.97;3.35;;;;;;;22.12;37.31;100272.91;5033559;28;20172;-76
2021/12/25 11:29:32;;;;;;;5.05;3.47;;;;;;;22.15;36.95;100251.25;5040241;28;20313;-76
2021/12/25 11:31:59;;;;;;;10.20;3.10;;;;;;;22.37;36.35;100266.03;5047895;28;20179;-77
2021/12/25 11:34:26;;;;;;;4.97;3.85;;;;;;;22.37;36.20;100268.63;5042070;28;20263;-77
2021/12/25 11:36:54;;;;;;;8.15;4.05;;;;;;;22.35;35.61;100241.59;5038304;28;20202;-80
2021/12/25 11:39:24;;;;;;;8.75;3.80;;;;;;;22.08;36.01;100241.41;5049310;28;20199;-80
2021/12/25 11:41:54;;;;;;;7.30;3.22;;;;;;;21.75;36.41;100199.28;5032875;28;20190;-76
2021/12/25 11:44:46;;;;;;;5.55;3.63;;;;;;;21.92;36.69;100251.25;5032445;28;20165;-79
2021/12/25 11:47:32;;;;;;;5.90;4.00;;;;;;;21.65;37.41;100263.19;5033185;28;20573;-78
2021/12/25 11:50:03;;;;;;;7.28;3.58;;;;;;;21.38;38.35;100263.88;5032451;28;20180;-79
2021/12/25 11:52:40;;;;;;;5.30;3.50;;;;;;;21.05;39.06;100252.91;5032451;28;20188;-78
2021/12/25 11:58:39;;;;;;;6.10;3.30;;;;;;;20.53;40.44;100267.16;5051959;28;20178;-78
2021/12/25 12:01:20;;;;;;;6.93;2.90;;;;;;;20.18;41.34;100262.03;5050022;28;20225;-78
2021/12/25 12:03:55;;;;;;;5.18;3.40;;;;;;;20.02;42.03;100268.25;5051442;28;20722;-77
2021/12/25 12:06:51;;;;;;;12.15;4.72;;;;;;;19.78;42.16;100268.88;5050377;28;20159;-78
2021/12/25 12:09:22;;;;;;;7.40;3.13;;;;;;;19.46;41.76;100253.41;5052255;28;20618;-78
2021/12/25 12:11:51;;;;;;;7.82;4.85;;;;;;;19.29;42.03;100279.44;5032592;28;20180;-77
2021/12/25 12:14:18;;;;;;;6.82;3.45;;;;;;;19.21;42.43;100269.50;5032970;28;20179;-79
2021/12/25 12:16:59;;;;;;;8.30;3.25;;;;;;;19.42;42.05;100270.56;5030302;28;20180;-78
2021/12/25 12:19:31;;;;;;;6.50;3.60;;;;;;;19.63;41.43;100269.84;5040930;28;20635;-77
2021/12/25 12:23:20;;;;;;;8.88;4.88;;;;;;;19.50;41.32;100225.06;5046604;28;20188;-77
2021/12/25 12:27:59;;;;;;;6.40;3.88;;;;;;;20.06;40.73;100262.34;5051949;28;20574;-79
2021/12/25 12:30:31;;;;;;;6.60;3.60;;;;;;;20.40;40.43;100261.28;5050708;28;20604;-76
2021/12/25 12:33:23;;;;;;;3.90;2.70;;;;;;;20.06;40.02;100192.13;5048708;28;20184;-78
2021/12/25 12:35:51;;;;;;;4.88;3.67;;;;;;;20.32;40.71;100258.38;5030301;28;20237;-76
2021/12/25 12:38:48;;;;;;;5.45;3.40;;;;;;;20.16;41.02;100248.97;5038791;28;20183;-75
2021/12/25 12:41:38;;;;;;;6.35;3.40;;;;;;;20.29;41.05;100255.63;5031788;28;20172;-77
2021/12/25 12:44:13;;;;;;;4.32;2.85;;;;;;;20.65;40.55;100239.88;5040706;28;20233;-77
2021/12/25 12:46:48;;;;;;;4.25;2.83;;;;;;;20.91;40.18;100246.22;5046532;28;20186;-78
2021/12/25 12:49:34;;;;;;;4.40;2.65;;;;;;;21.40;39.25;100248.28;5033183;28;20218;-76
2021/12/25 12:52:27;;;;;;;7.47;3.70;;;;;;;22.27;37.99;100243.00;5038170;28;20183;-76
2021/12/25 12:54:57;;;;;;;6.80;3.88;;;;;;;22.52;37.06;100253.53;5037361;28;20318;-77
2021/12/25 12:57:44;;;;;;;7.60;4.00;;;;;;;22.96;36.64;100250.72;5031472;28;20183;-77
2021/12/25 13:00:18;;;;;;;7.88;5.15;;;;;;;23.48;35.91;100242.00;5041070;28;20675;-75